createdAt,value
2019-01-21T07:25:04.195Z,5.50
2019-01-21T07:26:04.113Z,6.20
2019-01-21T07:27:04.095Z,5.60
2019-01-21T07:28:03.998Z,5.70
2019-01-21T07:29:03.949Z,5.70
2019-01-21T07:30:04.376Z,5.50
2019-01-21T07:31:03.850Z,5.40
2019-01-21T07:32:03.795Z,5.60
2019-01-21T07:33:03.747Z,5.30
2019-01-21T07:34:03.696Z,5.00
2019-01-21T07:35:03.653Z,5.60
2019-01-21T07:36:03.604Z,5.20
2019-01-21T07:37:03.550Z,5.30
2019-01-21T07:38:03.501Z,6.00
2019-01-21T07:39:03.453Z,5.30
2019-01-21T07:40:03.400Z,5.20
2019-01-21T07:41:03.352Z,5.60
2019-01-21T07:42:03.309Z,5.20
2019-01-21T07:43:03.262Z,5.30
2019-01-21T07:44:03.213Z,5.70
2019-01-21T07:45:03.170Z,5.50
2019-01-21T07:46:03.120Z,5.30
2019-01-21T07:47:03.076Z,5.50
2019-01-21T07:48:03.025Z,5.40
2019-01-21T07:49:02.979Z,5.40
2019-01-21T07:50:02.933Z,5.60
2019-01-21T07:51:02.897Z,5.50
2019-01-21T07:52:02.843Z,5.60
2019-01-21T07:53:02.801Z,5.30
2019-01-21T07:54:02.749Z,5.30
2019-01-21T07:55:02.703Z,5.10
2019-01-21T07:56:02.656Z,5.40
2019-01-21T07:57:02.610Z,5.40
2019-01-21T07:58:02.562Z,5.50
2019-01-21T07:59:02.526Z,5.30
2019-01-21T08:00:02.469Z,5.10
2019-01-21T08:01:02.429Z,5.30
2019-01-21T08:02:02.410Z,5.30
2019-01-21T08:03:02.340Z,5.40
2019-01-21T08:04:02.291Z,5.00
2019-01-21T08:05:02.295Z,5.40
2019-01-21T08:06:02.194Z,5.60
2019-01-21T08:07:02.162Z,5.20
2019-01-21T08:08:02.111Z,5.40
2019-01-21T08:09:02.067Z,4.90
2019-01-21T09:43:34.278Z,3.50
2019-01-21T09:44:34.208Z,4.60
2019-01-21T09:46:27.015Z,4.60
2019-01-21T09:47:26.906Z,4.80
2019-01-21T09:49:20.131Z,4.70
2019-01-21T09:50:20.056Z,4.70
2019-01-21T09:52:12.851Z,4.80
2019-01-21T09:53:12.792Z,4.70
2019-01-21T09:55:05.596Z,5.10
2019-01-21T09:56:05.545Z,4.90
2019-01-21T09:57:58.322Z,4.90
2019-01-21T09:58:58.290Z,5.20
2019-01-21T10:00:51.077Z,5.00
2019-01-21T10:01:51.005Z,5.10
2019-01-21T10:03:44.234Z,4.70
2019-01-21T10:04:44.176Z,5.50
2019-01-21T10:06:37.431Z,5.70
2019-01-21T10:07:37.379Z,5.30
2019-01-21T10:09:30.564Z,5.10
2019-01-21T10:10:30.517Z,5.40
2019-01-21T10:12:23.344Z,5.40
2019-01-21T10:13:23.269Z,5.20
2019-01-21T10:15:16.541Z,5.30
2019-01-21T10:16:16.449Z,5.30
2019-01-21T10:17:16.403Z,5.20
2019-01-21T10:18:16.362Z,4.90
2019-01-21T10:19:16.312Z,5.30
2019-01-21T10:20:16.268Z,4.90
2019-01-21T10:21:16.226Z,4.90
2019-01-21T10:22:16.177Z,5.70
2019-01-21T10:23:17.101Z,5.00
2019-01-21T10:24:16.089Z,5.20
2019-01-21T10:25:16.052Z,4.90
2019-01-21T10:26:15.997Z,4.90
2019-01-21T10:27:15.952Z,5.00
2019-01-21T10:28:15.911Z,5.70
2019-01-21T10:29:15.859Z,5.20
2019-01-21T10:30:15.819Z,5.10
2019-01-21T10:31:15.770Z,5.00
2019-01-21T10:32:15.732Z,4.80
2019-01-21T10:33:15.677Z,4.90
2019-01-21T10:34:15.659Z,4.90
2019-01-21T10:35:15.595Z,5.10
2019-01-21T10:36:15.552Z,5.30
2019-01-21T10:37:15.501Z,5.70
2019-01-21T10:38:15.485Z,4.90
2019-01-21T10:39:15.490Z,5.20
2019-01-21T10:40:15.367Z,5.20
2019-01-21T10:41:15.320Z,5.20
2019-01-21T10:42:15.277Z,5.50
2019-01-21T10:43:16.238Z,5.50
2019-01-21T10:44:15.293Z,5.50
2019-01-21T10:45:15.228Z,5.00
2019-01-21T10:46:15.133Z,5.40
2019-01-21T10:47:15.061Z,5.30
2019-01-21T10:48:15.016Z,5.20
2019-01-21T10:49:14.964Z,5.10
2019-01-21T10:50:14.923Z,5.30
2019-01-21T10:51:14.876Z,5.20
2019-01-21T10:52:14.836Z,5.30
2019-01-21T10:53:14.808Z,5.10
2019-01-21T10:54:14.746Z,5.20
2019-01-21T10:55:14.697Z,5.20
2019-01-21T10:56:14.654Z,5.30
2019-01-21T10:57:14.619Z,5.50
2019-01-21T10:58:14.566Z,5.00
2019-01-21T10:59:14.516Z,5.50
2019-01-21T11:00:14.476Z,5.20
2019-01-21T11:01:14.438Z,5.70
2019-01-21T11:02:14.387Z,5.20
2019-01-21T11:03:14.343Z,5.20
2019-01-21T11:04:14.301Z,5.30
2019-01-21T11:05:14.250Z,4.90
2019-01-21T11:06:14.209Z,5.20
2019-01-21T11:07:14.184Z,5.00
2019-01-21T11:08:14.123Z,5.30
2019-01-21T11:09:14.072Z,5.10
2019-01-21T11:10:14.030Z,5.00
2019-01-21T11:11:13.984Z,5.00
2019-01-21T11:12:13.944Z,5.10
2019-01-21T11:13:13.896Z,5.30
2019-01-21T11:14:13.856Z,5.10
2019-01-21T11:15:13.818Z,5.20
2019-01-21T11:16:13.768Z,4.80
2019-01-21T11:17:13.720Z,5.00
2019-01-21T11:18:13.679Z,5.20
2019-01-21T11:19:13.637Z,5.70
2019-01-21T11:20:13.590Z,4.80
2019-01-21T11:21:13.546Z,5.10
2019-01-21T11:22:13.500Z,4.70
2019-01-21T11:23:13.455Z,4.80
2019-01-21T11:24:13.609Z,4.60
2019-01-21T11:25:13.366Z,5.00
2019-01-21T11:26:13.323Z,4.70
2019-01-21T11:27:13.280Z,4.90
2019-01-21T11:28:13.233Z,4.90
2019-01-21T11:29:13.191Z,5.50
2019-01-21T11:30:13.147Z,4.80
2019-01-21T11:31:13.101Z,5.00
2019-01-21T11:32:13.060Z,4.80
2019-01-21T11:33:13.013Z,5.00
2019-01-21T11:34:12.970Z,5.50
2019-01-21T11:35:12.926Z,5.60
2019-01-21T11:36:12.886Z,4.90
2019-01-21T11:37:12.844Z,5.90
2019-01-21T11:38:12.799Z,6.10
2019-01-21T11:39:12.749Z,6.00
2019-01-21T11:40:12.709Z,4.60
2019-01-21T11:41:12.670Z,5.10
2019-01-21T11:42:12.615Z,5.10
2019-01-21T11:43:12.571Z,6.40
2019-01-21T11:44:12.529Z,6.10
2019-01-21T11:45:12.489Z,6.70
2019-01-21T11:46:12.438Z,6.80
2019-01-21T11:47:12.394Z,6.50
2019-01-21T11:48:12.350Z,6.50
2019-01-21T11:49:12.304Z,6.60
2019-01-21T11:50:12.261Z,6.40
2019-01-21T11:51:12.219Z,6.60
2019-01-21T11:52:12.173Z,7.30
2019-01-21T11:53:12.128Z,6.50
2019-01-21T11:54:12.086Z,6.80
2019-01-21T11:55:12.038Z,6.50
2019-01-21T11:56:11.999Z,6.70
2019-01-21T11:57:11.949Z,6.80
2019-01-21T11:58:11.907Z,6.90
2019-01-21T11:59:11.862Z,6.60
2019-01-21T12:00:11.816Z,6.90
2019-01-21T12:01:11.771Z,7.20
2019-01-21T12:02:11.727Z,7.10
2019-01-21T12:03:11.683Z,7.10
2019-01-21T12:04:11.639Z,6.70
2019-01-21T12:05:11.589Z,7.10
2019-01-21T12:06:11.549Z,6.60
2019-01-21T12:07:11.500Z,7.20
2019-01-21T12:08:11.460Z,7.20
2019-01-21T12:09:11.431Z,6.60
2019-01-21T12:10:11.369Z,6.50
2019-01-21T12:11:11.343Z,6.90
2019-01-21T12:12:11.279Z,6.60
2019-01-21T12:13:11.237Z,6.60
2019-01-21T12:14:11.193Z,6.30
2019-01-21T12:15:11.141Z,6.50
2019-01-21T12:16:11.095Z,6.40
2019-01-21T12:17:11.051Z,6.80
2019-01-21T12:18:11.007Z,6.30
2019-01-21T12:19:10.962Z,6.30
2019-01-21T12:20:16.878Z,6.30
2019-01-21T12:21:10.875Z,5.90
2019-01-21T12:22:10.829Z,6.10
2019-01-21T12:23:10.782Z,6.30
2019-01-21T12:24:10.738Z,6.40
2019-01-21T12:25:10.692Z,6.10
2019-01-21T12:26:10.657Z,5.70
2019-01-21T12:27:10.601Z,4.70
2019-01-21T12:28:10.559Z,5.20
2019-01-21T12:29:10.514Z,4.60
2019-01-21T12:30:10.471Z,5.30
2019-01-21T12:31:10.429Z,5.00
2019-01-21T12:32:10.381Z,4.60
2019-01-21T12:33:10.335Z,4.60
2019-01-21T12:34:10.285Z,4.80
2019-01-21T12:35:10.245Z,4.70
2019-01-21T12:36:10.198Z,5.10
2019-01-21T12:37:10.156Z,4.40
2019-01-21T12:38:10.116Z,5.00
2019-01-21T12:39:10.071Z,4.90
2019-01-21T12:40:10.021Z,4.80
2019-01-21T12:41:09.983Z,4.80
2019-01-21T12:42:09.934Z,4.30
2019-01-21T12:43:09.897Z,4.40
2019-01-21T12:44:09.851Z,4.80
2019-01-21T12:45:09.804Z,4.60
2019-01-21T12:46:09.759Z,5.10
2019-01-21T12:47:09.717Z,4.60
2019-01-21T12:48:09.671Z,4.60
2019-01-21T12:49:09.629Z,4.70
2019-01-21T12:50:09.589Z,4.30
2019-01-21T12:51:09.542Z,5.00
2019-01-21T12:52:09.492Z,4.80
2019-01-21T12:53:09.454Z,4.20
2019-01-21T12:54:09.411Z,4.20
2019-01-21T12:55:09.366Z,4.40
2019-01-21T12:56:09.325Z,4.70
2019-01-21T12:57:09.281Z,4.30
2019-01-21T12:58:09.243Z,4.40
2019-01-21T12:59:09.196Z,4.50
2019-01-21T13:00:09.171Z,4.30
2019-01-21T13:01:09.109Z,4.10
2019-01-21T13:02:09.066Z,4.50
2019-01-21T13:03:09.024Z,4.40
2019-01-21T13:04:09.001Z,4.50
2019-01-21T13:05:08.949Z,4.20
2019-01-21T13:06:08.905Z,4.50
2019-01-21T13:07:08.860Z,4.30
2019-01-21T13:08:08.809Z,4.20
2019-01-21T13:09:08.767Z,4.40
2019-01-21T13:10:08.723Z,4.00
2019-01-21T13:11:08.683Z,4.00
2019-01-21T13:12:08.643Z,4.00
2019-01-21T13:13:08.602Z,4.40
2019-01-21T13:14:08.575Z,4.20
2019-01-21T13:15:08.515Z,4.00
2019-01-21T13:16:08.463Z,4.40
2019-01-21T13:17:08.449Z,4.10
2019-01-21T13:18:08.381Z,4.20
2019-01-21T13:19:08.338Z,4.20
2019-01-21T13:20:08.290Z,4.10
2019-01-21T13:21:08.250Z,4.10
2019-01-21T13:22:08.209Z,4.20
2019-01-21T13:23:08.164Z,4.00
2019-01-21T13:24:08.148Z,4.20
2019-01-21T13:25:08.083Z,4.20
2019-01-21T13:26:08.029Z,4.30
2019-01-21T13:27:08.021Z,4.30
2019-01-21T13:28:07.949Z,4.30
2019-01-21T13:29:08.645Z,4.20
2019-01-21T13:30:07.862Z,4.20
2019-01-21T13:31:07.818Z,3.90
2019-01-21T13:32:07.780Z,4.20
2019-01-21T13:33:07.731Z,4.40
2019-01-21T13:34:07.694Z,4.00
2019-01-21T13:35:07.648Z,4.30
2019-01-21T13:36:07.601Z,4.10
2019-01-21T13:37:07.557Z,4.00
2019-01-21T13:38:07.514Z,3.90
2019-01-21T13:39:07.469Z,4.90
2019-01-21T13:40:07.425Z,3.80
2019-01-21T13:41:07.389Z,4.20
2019-01-21T13:42:07.355Z,3.90
2019-01-21T13:43:07.297Z,6.50
2019-01-21T13:44:07.251Z,6.60
2019-01-21T13:45:07.208Z,7.90
2019-01-21T13:46:07.166Z,8.00
2019-01-21T13:47:07.140Z,7.80
2019-01-21T13:48:07.873Z,8.40
2019-01-21T13:49:07.032Z,8.40
2019-01-21T13:50:06.992Z,8.90
2019-01-21T13:51:06.945Z,8.90
2019-01-21T13:52:06.909Z,8.90
2019-01-21T13:53:06.860Z,8.90
2019-01-21T13:54:06.823Z,9.30
2019-01-21T13:55:06.773Z,9.00
2019-01-21T13:56:06.726Z,8.80
2019-01-21T13:57:06.677Z,8.20
2019-01-21T13:58:06.642Z,8.10
2019-01-21T13:59:06.591Z,7.70
2019-01-21T14:00:06.552Z,6.20
2019-01-21T14:01:06.506Z,5.30
2019-01-21T14:02:06.460Z,5.90
2019-01-21T14:03:06.416Z,5.80
2019-01-21T14:04:06.375Z,5.50
2019-01-21T14:05:06.329Z,5.20
2019-01-21T14:06:06.294Z,5.30
2019-01-21T14:07:06.239Z,5.20
2019-01-21T14:08:06.194Z,5.00
2019-01-21T14:09:06.143Z,4.80
2019-01-21T14:10:06.108Z,5.30
2019-01-21T14:11:06.062Z,5.50
2019-01-21T14:12:06.019Z,5.00
2019-01-21T14:13:05.970Z,4.90
2019-01-21T14:14:05.926Z,4.90
2019-01-21T14:15:05.907Z,5.10
2019-01-21T14:16:05.839Z,4.70
2019-01-21T14:17:05.809Z,5.00
2019-01-21T14:18:05.756Z,4.80
2019-01-21T14:19:05.704Z,4.70
2019-01-21T14:20:05.661Z,5.00
2019-01-21T14:21:05.624Z,4.70
2019-01-21T14:22:05.573Z,4.30
2019-01-21T14:23:05.535Z,4.90
2019-01-21T14:24:05.483Z,4.60
2019-01-21T14:25:05.441Z,4.70
2019-01-21T14:26:05.394Z,4.70
2019-01-21T14:27:05.353Z,4.40
2019-01-21T14:28:05.303Z,4.30
2019-01-21T14:29:05.261Z,4.20
2019-01-21T14:30:05.215Z,4.70
2019-01-21T14:31:05.166Z,4.40
2019-01-21T14:32:05.130Z,5.10
2019-01-21T14:33:05.084Z,4.50
2019-01-21T14:34:05.039Z,4.90
2019-01-21T21:00:05.752Z,3.50
2019-01-21T21:01:05.595Z,5.60
2019-01-21T21:02:58.860Z,5.80
2019-01-21T21:03:58.784Z,5.70
2019-01-21T21:05:52.031Z,5.90
2019-01-21T21:06:51.965Z,5.80
2019-01-21T21:08:44.785Z,5.80
2019-01-21T21:09:44.699Z,6.00
2019-01-21T21:11:37.491Z,6.00
2019-01-21T21:12:37.437Z,5.90
2019-01-21T21:14:30.252Z,5.50
2019-01-21T21:15:30.173Z,5.50
2019-01-21T21:17:22.992Z,5.90
2019-01-21T21:18:22.928Z,5.40
2019-01-21T21:20:16.166Z,5.60
2019-01-21T21:21:16.113Z,6.20
2019-01-21T21:23:09.373Z,5.60
2019-01-21T21:24:09.305Z,5.90
2019-01-21T21:26:02.568Z,6.00
2019-01-21T21:27:02.501Z,5.80
2019-01-21T21:28:55.323Z,6.00
2019-01-21T21:29:55.259Z,5.70
2019-01-21T21:31:48.054Z,6.00
2019-01-21T21:32:48.017Z,5.70
2019-01-21T21:34:40.832Z,5.50
2019-01-21T21:35:40.749Z,5.60
2019-01-21T21:37:33.560Z,5.60
2019-01-21T21:38:33.505Z,6.00
2019-01-21T21:40:26.330Z,5.80
2019-01-21T21:41:26.280Z,6.20
2019-01-21T21:43:19.525Z,5.70
2019-01-21T21:44:19.454Z,5.90
2019-01-21T21:46:12.263Z,5.90
2019-01-21T21:47:12.207Z,6.10
2019-01-21T21:49:05.453Z,5.80
2019-01-21T21:50:05.379Z,6.20
2019-01-21T21:51:58.686Z,5.70
2019-01-21T21:52:58.630Z,6.20
2019-01-21T21:54:51.873Z,6.10
2019-01-21T21:55:51.804Z,6.20
2019-01-21T21:57:45.044Z,6.10
2019-01-21T21:58:44.989Z,5.80
2019-01-21T22:00:37.818Z,5.60
2019-01-21T22:01:40.103Z,5.90
2019-01-21T22:03:30.599Z,5.90
2019-01-21T22:04:30.526Z,6.30
2019-01-21T22:05:30.483Z,5.90
2019-01-21T22:06:30.439Z,5.40
2019-01-21T22:07:30.390Z,6.20
2019-01-21T22:08:30.525Z,6.10
2019-01-21T22:09:30.299Z,5.70
2019-01-21T22:10:30.261Z,6.00
2019-01-21T22:11:30.211Z,5.90
2019-01-21T22:12:30.171Z,5.70
2019-01-21T22:13:30.126Z,5.80
2019-01-21T22:14:30.086Z,6.00
2019-01-21T22:15:30.033Z,5.90
2019-01-21T22:16:29.992Z,5.60
2019-01-21T22:17:29.946Z,5.60
2019-01-21T22:18:29.904Z,5.60
2019-01-21T22:19:29.864Z,5.50
2019-01-21T22:20:29.815Z,5.40
2019-01-21T22:21:29.775Z,5.70
2019-01-21T22:22:34.727Z,5.40
2019-01-21T22:23:31.002Z,5.60
2019-01-21T22:24:29.640Z,5.50
2019-01-21T22:25:29.596Z,5.20
2019-01-21T22:26:29.547Z,5.70
2019-01-21T22:27:29.497Z,5.30
2019-01-21T22:28:29.458Z,5.90
2019-01-21T22:29:29.418Z,5.70
2019-01-21T22:30:29.366Z,5.60
2019-01-21T22:31:29.347Z,5.60
2019-01-21T22:32:29.277Z,5.70
2019-01-21T22:33:29.234Z,5.40
2019-01-21T22:34:29.189Z,5.70
2019-01-21T22:35:29.141Z,5.60
2019-01-21T22:36:29.100Z,5.90
2019-01-21T22:37:29.054Z,5.50
2019-01-21T22:38:29.011Z,5.70
2019-01-21T22:39:28.959Z,5.90
2019-01-21T22:40:28.925Z,5.50
2019-01-21T22:41:28.877Z,5.90
2019-01-21T22:42:28.836Z,5.50
2019-01-21T22:43:28.787Z,5.40
2019-01-21T22:44:28.744Z,5.90
2019-01-21T22:45:28.692Z,5.70
2019-01-21T22:46:28.653Z,5.80
2019-01-21T22:47:28.614Z,5.20
2019-01-21T22:48:28.581Z,5.60
2019-01-21T22:49:28.521Z,6.00
2019-01-21T22:50:28.474Z,5.60
2019-01-21T22:51:28.433Z,5.80
2019-01-21T22:52:28.385Z,5.90
2019-01-21T22:53:28.346Z,5.80
2019-01-21T22:54:28.292Z,5.20
2019-01-21T22:55:28.253Z,5.80
2019-01-21T22:56:28.203Z,5.60
2019-01-21T22:57:28.158Z,5.70
2019-01-21T22:58:28.109Z,5.20
2019-01-21T22:59:28.073Z,5.30
2019-01-21T23:00:28.028Z,5.40
2019-01-21T23:01:27.980Z,5.40
2019-01-21T23:02:27.938Z,5.30
2019-01-21T23:03:27.893Z,5.40
2019-01-21T23:04:27.848Z,5.70
2019-01-21T23:05:27.806Z,5.30
2019-01-21T23:06:27.758Z,5.40
2019-01-21T23:07:27.714Z,5.20
2019-01-21T23:08:27.667Z,5.70
2019-01-21T23:09:27.629Z,5.30
2019-01-21T23:10:27.580Z,5.90
2019-01-21T23:11:27.541Z,5.60
2019-01-21T23:12:27.494Z,5.30
2019-01-21T23:13:27.446Z,5.30
2019-01-21T23:14:27.405Z,5.60
2019-01-21T23:15:27.351Z,5.80
2019-01-21T23:16:27.313Z,5.50
2019-01-21T23:17:27.272Z,5.10
2019-01-21T23:18:27.226Z,5.40
2019-01-21T23:19:27.193Z,5.60
2019-01-21T23:20:27.136Z,5.50
2019-01-21T23:21:27.094Z,5.20
2019-01-21T23:22:27.041Z,5.40
2019-01-21T23:23:26.995Z,5.20
2019-01-21T23:24:26.952Z,5.50
2019-01-21T23:25:26.912Z,5.50
2019-01-21T23:26:26.869Z,5.60
2019-01-21T23:27:26.823Z,5.60
2019-01-21T23:28:26.779Z,5.10
2019-01-21T23:29:26.734Z,5.10
2019-01-21T23:30:26.705Z,5.70
2019-01-21T23:31:26.648Z,5.70
2019-01-21T23:32:26.604Z,5.50
2019-01-21T23:33:26.557Z,5.50
2019-01-21T23:34:26.509Z,5.40
2019-01-21T23:35:26.466Z,5.50
2019-01-21T23:36:26.421Z,5.40
2019-01-21T23:37:26.380Z,5.30
2019-01-21T23:38:26.347Z,5.50
2019-01-21T23:39:26.291Z,5.40
2019-01-21T23:40:26.245Z,5.60
2019-01-21T23:41:26.202Z,5.40
2019-01-21T23:42:26.163Z,5.60
2019-01-21T23:43:26.106Z,5.90
2019-01-21T23:44:26.069Z,5.40
2019-01-21T23:45:26.020Z,5.60
2019-01-21T23:46:25.974Z,5.70
2019-01-21T23:47:25.930Z,5.60
2019-01-21T23:48:25.887Z,5.10
2019-01-21T23:49:25.840Z,5.50
2019-01-21T23:50:25.815Z,5.40
2019-01-21T23:51:25.776Z,5.30
2019-01-21T23:52:25.729Z,5.20
2019-01-21T23:53:25.662Z,5.30
2019-01-21T23:54:25.615Z,5.30
2019-01-21T23:55:25.573Z,5.10
2019-01-21T23:56:25.528Z,5.20
2019-01-21T23:57:25.486Z,5.50
2019-01-21T23:58:25.462Z,5.50
2019-01-21T23:59:25.393Z,5.20
